Prior Lake, MN (55372)

10:19 PM CDT on August 23, 2016 (GMT -0500)
The Wilds Golf Course | | Change Station

Elev 1033 ft 44.73 °N, 93.46 °W | Updated 24 seconds ago

Light Thunderstorms and Rain
Light Thunderstorm Rain Mist
66.7 °F
Feels Like 66.7 °F
N
6.9
Wind Variable Wind from East
Gusts 9.0 mph

Today
High -- | Low -- °F
--% Chance of Precip.
Yesterday
High -- | Low -- °F
Precip. -- in
Pressure 29.84 in
Visibility 5.0 miles
Clouds Mostly Cloudy 600 ft
Mostly Cloudy 1400 ft
Overcast 3900 ft
Dew Point 66 °F
Humidity 96%
Rainfall 0.93 in
Snow Depth Not available.
6:26 AM 8:05 PM
Waning Gibbous, 62% visible
SPECI KFCM 240309Z AUTO 15006KT 5SM -TSRA BR BKN006 BKN014 OVC039 21/19 A2984 RMK AO2 LTG DSNT ALQDS TSE0258B09 P0008 T02060189
Pressure 29.84 in
Visibility 5.0 miles
Clouds Mostly Cloudy 600 ft
Mostly Cloudy 1400 ft
Overcast 3900 ft
Dew Point 66 °F
Humidity 96%
Rainfall 0.93 in
Snow Depth Not available.
6:26 AM 8:05 PM
Waning Gibbous, 62% visible
SPECI KFCM 240309Z AUTO 15006KT 5SM -TSRA BR BKN006 BKN014 OVC039 21/19 A2984 RMK AO2 LTG DSNT ALQDS TSE0258B09 P0008 T02060189

10-Day Weather Forecast

Almanac

Astronomy

Aug. 23, 2016 Rise Set
Actual Time
Civil Twilight
Nautical Twilight
Astronomical Twilight
Moon
Length of Visible Light
Length of Day
Tomorrow will be .
, % of the Moon is Illuminated

Today's Extremes

State Highs State Lows

Community

WunderPhotos

Upload Photos

1,934,540 photos uploaded!

WunderBlog® & News

Nearby

Air Quality

  Air Quality AQ Index Pollutant
Not available.

Snow Depth

Station Depth Elevation

Earthquake Activity

City Distance Mag. Time & Date
Minimum magnitude displayed is 2.5.

Coastal Water Temperatures

Place Temperature

Stations

Nearby Weather Stations

Station Location Temp. Windchill Dew Point Humidity Wind Precip. Elev Updated Type
                   

Watches & Warnings

There are currently no watches in effect.